CGV4 weather

CLOSED Grand Valley (Madill Field)
Ontario, Canada

Public forecast

Using degrees Celsius for public forecast. Weather courtesy of forecast.io.

METAR (pilot weather report)

Closest report is Waterloo Airport, 24.6 nm (45.5 km) SSW. Retrieved 2019/05/21 15:00 UTC (6 minutes ago):

CYKF 211500Z AUTO 32011G16KT 280V350 9SM CLR 14/06 A3015 RMK SLP215

TAF (pilot weather forecast)

Closest forecast is Waterloo Airport, 24.6 nm (45.5 km) SSW. Retrieved 2019/05/21 14:39 UTC (27 minutes ago):

TAF TAF CYKF 211338Z 2114/2202 32010G20KT P6SM FEW030 BECMG 2121/2122 36010KT FM220100 04006KT P6SM SCT240 RMK FCST BASED ON AUTO OBS. NXT FCST BY 212000Z